createdAt,value
2017-05-21T00:01:24.681Z,11.00
2017-05-21T00:03:52.364Z,11.00
2017-05-21T00:06:20.035Z,11.00
2017-05-21T00:08:47.680Z,11.00
2017-05-21T00:11:15.677Z,10.90
2017-05-21T00:13:43.325Z,10.90
2017-05-21T00:16:10.970Z,10.90
2017-05-21T00:18:38.664Z,10.90
2017-05-21T00:21:07.170Z,10.90
2017-05-21T00:23:35.233Z,10.80
2017-05-21T00:26:02.893Z,10.80
2017-05-21T00:28:30.545Z,10.70
2017-05-21T00:30:58.218Z,10.70
2017-05-21T00:33:26.626Z,10.60
2017-05-21T00:35:54.621Z,10.60
2017-05-21T00:38:22.291Z,10.70
2017-05-21T00:40:49.957Z,10.60
2017-05-21T00:43:18.402Z,10.70
2017-05-21T00:45:46.819Z,10.60
2017-05-21T00:48:14.878Z,10.60
2017-05-21T00:50:42.521Z,10.60
2017-05-21T00:53:10.181Z,10.60
2017-05-21T00:55:37.853Z,10.60
2017-05-21T00:58:05.505Z,10.70
2017-05-21T01:00:33.529Z,10.70
2017-05-21T01:03:01.179Z,10.70
2017-05-21T01:05:28.823Z,10.60
2017-05-21T01:07:56.525Z,10.60
2017-05-21T01:10:24.177Z,10.70
2017-05-21T01:12:52.169Z,10.70
2017-05-21T01:15:19.819Z,10.70
2017-05-21T01:17:47.476Z,10.80
2017-05-21T01:20:15.153Z,10.70
2017-05-21T01:22:42.803Z,10.70
2017-05-21T01:25:10.484Z,10.80
2017-05-21T01:27:38.127Z,10.80
2017-05-21T01:30:06.196Z,10.90
2017-05-21T01:32:34.610Z,11.00
2017-05-21T01:35:02.281Z,10.90
2017-05-21T01:37:30.716Z,11.00
2017-05-21T01:39:58.386Z,10.90
2017-05-21T01:42:26.377Z,11.00
2017-05-21T01:44:54.033Z,11.00
2017-05-21T01:47:21.672Z,11.00
2017-05-21T01:49:49.343Z,11.00
2017-05-21T01:52:17.102Z,11.00
2017-05-21T01:54:45.120Z,11.00
2017-05-21T01:57:12.769Z,11.10
2017-05-21T01:59:40.415Z,11.10
2017-05-21T02:02:08.085Z,11.10
2017-05-21T02:04:35.735Z,11.10
2017-05-21T02:07:04.482Z,11.00
2017-05-21T02:09:32.125Z,11.00
2017-05-21T02:11:59.769Z,11.10
2017-05-21T02:14:28.272Z,11.10
2017-05-21T02:16:55.915Z,11.00
2017-05-21T02:19:23.949Z,11.10
2017-05-21T02:21:51.597Z,11.10
2017-05-21T02:24:19.243Z,11.10
2017-05-21T02:26:46.916Z,11.20
2017-05-21T02:29:14.561Z,11.20
2017-05-21T02:31:43.301Z,11.20
2017-05-21T02:34:11.709Z,11.10
2017-05-21T02:36:39.353Z,11.10
2017-05-21T02:39:07.807Z,11.10
2017-05-21T02:41:36.217Z,11.00
2017-05-21T02:44:04.177Z,11.00
2017-05-21T02:46:32.596Z,11.00
2017-05-21T02:49:00.245Z,10.90
2017-05-21T02:51:28.799Z,10.90
2017-05-21T02:53:56.445Z,10.80
2017-05-21T02:56:25.185Z,10.80
2017-05-21T02:58:52.834Z,10.70
2017-05-21T03:01:20.478Z,10.60
2017-05-21T03:03:48.206Z,10.60
2017-05-21T03:06:15.845Z,10.50
2017-05-21T03:08:43.840Z,10.50
2017-05-21T03:11:12.340Z,10.40
2017-05-21T03:13:39.995Z,10.40
2017-05-21T03:16:07.676Z,10.40
2017-05-21T03:18:35.333Z,10.30
2017-05-21T03:21:03.307Z,10.30
2017-05-21T03:23:30.971Z,10.20
2017-05-21T03:25:58.631Z,10.20
2017-05-21T03:28:26.329Z,10.20
2017-05-21T03:30:54.766Z,10.10
2017-05-21T03:33:23.592Z,10.10
2017-05-21T03:35:52.005Z,10.20
2017-05-21T03:38:19.659Z,10.10
2017-05-21T03:40:47.337Z,10.20
2017-05-21T03:43:15.754Z,10.20
2017-05-21T03:45:44.609Z,10.20
2017-05-21T03:48:12.265Z,10.30
2017-05-21T03:50:40.692Z,10.30
2017-05-21T03:53:08.368Z,10.30
2017-05-21T03:55:36.781Z,10.40
2017-05-21T03:58:04.460Z,10.30
2017-05-21T04:00:32.974Z,10.50
2017-05-21T04:03:00.625Z,10.40
2017-05-21T04:05:28.280Z,10.50
2017-05-21T04:07:56.256Z,10.50
2017-05-21T04:10:23.938Z,10.60
2017-05-21T04:12:52.349Z,10.70
2017-05-21T04:15:20.028Z,10.60
2017-05-21T04:17:47.681Z,10.80
2017-05-21T04:20:15.729Z,10.90
2017-05-21T04:22:44.204Z,11.10
2017-05-21T04:25:11.857Z,11.10
2017-05-21T04:27:39.524Z,11.10
2017-05-21T04:30:07.170Z,11.30
2017-05-21T04:32:35.192Z,11.40
2017-05-21T04:35:02.835Z,11.40
2017-05-21T04:37:30.485Z,11.60
2017-05-21T04:39:58.161Z,11.60
2017-05-21T04:42:25.819Z,11.70
2017-05-21T04:44:53.827Z,11.80
2017-05-21T04:47:21.469Z,11.90
2017-05-21T04:49:49.122Z,11.90
2017-05-21T04:52:16.805Z,12.00
2017-05-21T04:54:45.233Z,12.40
2017-05-21T04:57:14.008Z,12.60
2017-05-21T04:59:42.445Z,12.70
2017-05-21T05:02:10.101Z,12.60
2017-05-21T05:04:38.545Z,13.10
2017-05-21T05:07:06.208Z,13.00
2017-05-21T05:09:34.182Z,13.40
2017-05-21T05:12:01.841Z,13.60
2017-05-21T05:14:30.261Z,14.00
2017-05-21T05:16:57.945Z,14.00
2017-05-21T05:19:25.634Z,14.20
2017-05-21T05:21:53.650Z,14.30
2017-05-21T05:24:22.082Z,14.30
2017-05-21T05:26:49.741Z,14.30
2017-05-21T05:29:17.440Z,14.30
2017-05-21T05:31:45.097Z,14.30
2017-05-21T05:34:13.057Z,14.50
2017-05-21T05:36:41.476Z,15.00
2017-05-21T05:39:09.128Z,14.90
2017-05-21T05:41:36.817Z,15.20
2017-05-21T05:44:04.484Z,15.50
2017-05-21T05:46:32.431Z,15.60
2017-05-21T05:49:00.854Z,15.90
2017-05-21T05:51:28.506Z,15.90
2017-05-21T05:53:56.210Z,16.30
2017-05-21T05:56:24.625Z,17.00
2017-05-21T05:58:52.640Z,16.90
2017-05-21T06:01:20.306Z,17.50
2017-05-21T06:03:48.896Z,18.50
2017-05-21T06:06:19.536Z,18.40
2017-05-21T06:08:47.166Z,18.70
2017-05-21T06:11:15.180Z,19.20
2017-05-21T06:13:43.571Z,19.50
2017-05-21T06:16:11.196Z,19.40
2017-05-21T06:18:38.857Z,19.50
2017-05-21T06:21:06.493Z,20.00
2017-05-21T06:23:34.421Z,20.40
2017-05-21T06:26:02.849Z,21.00
2017-05-21T06:28:30.473Z,20.90
2017-05-21T06:30:58.880Z,21.80
2017-05-21T06:33:26.511Z,21.70
2017-05-21T06:35:55.321Z,22.10
2017-05-21T06:38:23.706Z,22.20
2017-05-21T06:40:51.401Z,22.20
2017-05-21T06:43:19.813Z,23.50
2017-05-21T06:45:48.279Z,23.40
2017-05-21T06:48:16.325Z,23.30
2017-05-21T06:50:44.801Z,22.60
2017-05-21T06:53:12.433Z,22.50
2017-05-21T06:55:40.081Z,23.20
2017-05-21T06:58:08.583Z,23.50
2017-05-21T07:00:36.632Z,23.40
2017-05-21T07:03:04.286Z,23.50
2017-05-21T07:05:31.931Z,24.50
2017-05-21T07:07:59.769Z,24.90
2017-05-21T07:10:27.397Z,24.00
2017-05-21T07:12:55.426Z,23.60
2017-05-21T07:15:23.051Z,23.80
2017-05-21T07:17:50.797Z,24.50
2017-05-21T07:20:18.565Z,24.60
2017-05-21T07:22:46.194Z,24.60
2017-05-21T07:25:15.023Z,24.10
2017-05-21T07:27:42.651Z,24.10
2017-05-21T07:30:10.265Z,24.60
2017-05-21T07:32:37.991Z,25.10
2017-05-21T07:35:05.774Z,25.10
2017-05-21T07:37:33.720Z,25.10
2017-05-21T07:40:01.394Z,24.80
2017-05-21T07:42:29.783Z,24.00
2017-05-21T07:44:57.447Z,23.90
2017-05-21T07:47:25.824Z,23.70
2017-05-21T07:49:54.555Z,23.20
2017-05-21T07:52:22.235Z,23.10
2017-05-21T07:54:49.889Z,23.40
2017-05-21T07:57:17.528Z,24.00
2017-05-21T07:59:45.149Z,24.50
2017-05-21T08:02:13.844Z,23.30
2017-05-21T08:04:42.265Z,23.60
2017-05-21T08:07:09.885Z,23.60
2017-05-21T08:09:37.535Z,24.40
2017-05-21T08:12:05.200Z,25.00
2017-05-21T08:14:33.257Z,25.40
2017-05-21T08:17:01.108Z,26.00
2017-05-21T08:19:28.734Z,26.30
2017-05-21T08:21:56.397Z,26.90
2017-05-21T08:24:24.796Z,26.30
2017-05-21T08:26:52.950Z,26.20
2017-05-21T08:29:20.575Z,26.70
2017-05-21T08:31:48.197Z,26.50
2017-05-21T08:34:16.611Z,25.80
2017-05-21T08:36:44.246Z,25.80
2017-05-21T08:39:12.945Z,23.40
2017-05-21T08:41:40.600Z,23.30
2017-05-21T08:44:08.225Z,22.60
2017-05-21T08:46:36.636Z,21.40
2017-05-21T08:49:04.248Z,21.30
2017-05-21T08:51:32.198Z,21.90
2017-05-21T08:54:00.132Z,22.30
2017-05-21T08:56:28.056Z,22.20
2017-05-21T08:58:55.708Z,22.30
2017-05-21T09:01:25.335Z,21.90
2017-05-21T09:03:54.033Z,21.80
2017-05-21T09:06:21.837Z,21.70
2017-05-21T09:08:49.833Z,21.90
2017-05-21T09:11:17.737Z,23.10
2017-05-21T09:13:46.979Z,23.50
2017-05-21T09:16:16.237Z,23.20
2017-05-21T09:18:43.888Z,22.60
2017-05-21T09:21:12.282Z,22.60
2017-05-21T09:23:41.221Z,22.50
2017-05-21T09:26:08.880Z,22.90
2017-05-21T09:28:36.523Z,23.20
2017-05-21T09:31:04.174Z,22.90
2017-05-21T09:33:32.576Z,22.10
2017-05-21T09:36:05.401Z,22.10
2017-05-21T09:38:33.020Z,22.00
2017-05-21T09:41:01.421Z,22.30
2017-05-21T09:43:29.083Z,22.20
2017-05-21T09:45:56.716Z,22.10
2017-05-21T09:48:24.666Z,22.20
2017-05-21T09:50:53.065Z,22.60
2017-05-21T09:53:20.680Z,22.50
2017-05-21T09:55:48.324Z,22.60
2017-05-21T09:58:16.734Z,22.30
2017-05-21T10:00:44.697Z,22.30
2017-05-21T10:03:12.314Z,22.20
2017-05-21T10:05:40.726Z,22.20
2017-05-21T10:08:08.389Z,22.10
2017-05-21T10:10:36.782Z,21.80
2017-05-21T10:13:04.703Z,21.70
2017-05-21T10:15:32.316Z,21.40
2017-05-21T10:18:00.701Z,20.90
2017-05-21T10:20:28.357Z,20.90
2017-05-21T10:22:55.985Z,20.50
2017-05-21T10:25:23.934Z,20.20
2017-05-21T10:27:51.581Z,20.10
2017-05-21T10:30:20.001Z,19.80
2017-05-21T10:32:48.453Z,19.80
2017-05-21T10:35:16.117Z,19.80
2017-05-21T10:37:44.097Z,20.00
2017-05-21T10:40:11.734Z,20.00
2017-05-21T10:42:39.371Z,20.10
2017-05-21T10:45:07.185Z,20.40
2017-05-21T10:47:36.422Z,21.30
2017-05-21T10:50:04.491Z,21.20
2017-05-21T10:52:32.273Z,21.60
2017-05-21T10:54:59.945Z,22.30
2017-05-21T10:57:27.609Z,22.80
2017-05-21T10:59:55.355Z,23.10
2017-05-21T11:02:23.367Z,23.60
2017-05-21T11:04:51.564Z,23.70
2017-05-21T11:07:19.210Z,24.00
2017-05-21T11:09:47.618Z,24.70
2017-05-21T11:12:16.038Z,25.10
2017-05-21T11:14:44.090Z,25.00
2017-05-21T11:17:11.774Z,25.30
2017-05-21T11:19:39.434Z,25.70
2017-05-21T11:22:07.083Z,26.00
2017-05-21T11:24:34.774Z,25.60
2017-05-21T11:27:02.732Z,25.60
2017-05-21T11:29:30.372Z,25.30
2017-05-21T11:31:58.783Z,25.00
2017-05-21T11:34:26.440Z,24.90
2017-05-21T11:36:54.076Z,24.90
2017-05-21T11:39:22.147Z,25.00
2017-05-21T11:41:50.552Z,24.50
2017-05-21T11:44:18.167Z,24.40
2017-05-21T11:46:45.841Z,24.40
2017-05-21T11:49:14.232Z,23.20
2017-05-21T11:51:42.216Z,23.10
2017-05-21T11:54:09.843Z,22.70
2017-05-21T11:56:37.481Z,22.40
2017-05-21T11:59:05.146Z,22.20
2017-05-21T12:01:32.800Z,22.00
2017-05-21T12:04:00.420Z,21.70
2017-05-21T12:06:28.392Z,21.40
2017-05-21T12:08:56.807Z,21.20
2017-05-21T12:11:25.688Z,21.00
2017-05-21T12:13:53.697Z,20.90
2017-05-21T12:16:21.367Z,21.10
2017-05-21T12:18:49.756Z,21.30
2017-05-21T12:21:17.405Z,21.20
2017-05-21T12:23:45.040Z,21.50
2017-05-21T12:26:12.976Z,21.80
2017-05-21T12:28:40.606Z,21.70
2017-05-21T12:31:09.006Z,21.70
2017-05-21T12:33:37.425Z,21.60
2017-05-21T12:36:05.053Z,21.60
2017-05-21T12:38:33.873Z,21.50
2017-05-21T12:41:02.275Z,20.90
2017-05-21T12:43:30.665Z,20.90
2017-05-21T12:45:58.323Z,20.90
2017-05-21T12:48:26.013Z,20.90
2017-05-21T12:50:54.021Z,20.90
2017-05-21T12:53:22.480Z,20.70
2017-05-21T12:55:50.129Z,20.60
2017-05-21T12:58:17.787Z,20.60
2017-05-21T13:00:45.413Z,20.70
2017-05-21T13:03:14.206Z,21.00
2017-05-21T13:05:41.847Z,21.00
2017-05-21T13:08:09.472Z,21.10
2017-05-21T13:10:37.143Z,21.30
2017-05-21T13:13:04.797Z,21.40
2017-05-21T13:15:32.721Z,21.30
2017-05-21T13:18:01.117Z,21.60
2017-05-21T13:20:28.750Z,21.50
2017-05-21T13:22:56.566Z,21.80
2017-05-21T13:25:24.274Z,21.90
2017-05-21T13:27:52.218Z,22.00
2017-05-21T13:30:20.608Z,22.10
2017-05-21T13:32:48.997Z,22.00
2017-05-21T13:35:16.658Z,22.00
2017-05-21T13:37:44.290Z,22.10
2017-05-21T13:40:12.224Z,22.10
2017-05-21T13:42:39.848Z,21.90
2017-05-21T13:45:07.476Z,21.70
2017-05-21T13:47:35.117Z,21.40
2017-05-21T13:50:02.742Z,21.20
2017-05-21T13:52:30.735Z,21.20
2017-05-21T13:54:58.582Z,21.20
2017-05-21T13:57:26.235Z,21.30
2017-05-21T13:59:53.887Z,21.30
2017-05-21T14:02:22.300Z,21.30
2017-05-21T14:04:50.371Z,21.30
2017-05-21T14:07:18.876Z,21.30
2017-05-21T14:09:47.285Z,21.20
2017-05-21T14:12:15.711Z,21.10
2017-05-21T14:14:44.111Z,21.10
2017-05-21T14:19:45.986Z,21.00
2017-05-21T14:22:13.989Z,21.10
2017-05-21T14:24:41.655Z,21.30
2017-05-21T14:27:09.289Z,21.20
2017-05-21T14:29:37.138Z,21.20
2017-05-21T14:32:05.573Z,21.40
2017-05-21T14:34:33.496Z,21.30
2017-05-21T14:37:01.131Z,21.40
2017-05-21T14:39:29.516Z,21.50
2017-05-21T14:41:57.936Z,21.50
2017-05-21T14:44:26.337Z,21.40
2017-05-21T14:46:54.270Z,21.30
2017-05-21T14:49:21.905Z,21.20
2017-05-21T14:51:50.330Z,20.90
2017-05-21T14:54:18.003Z,20.90
2017-05-21T14:56:45.678Z,20.90
2017-05-21T14:59:13.656Z,20.90
2017-05-21T15:01:41.301Z,20.80
2017-05-21T15:04:09.714Z,20.70
2017-05-21T15:06:38.161Z,20.70
2017-05-21T15:09:05.825Z,20.70
2017-05-21T15:11:33.825Z,20.80
2017-05-21T15:14:01.482Z,20.80
2017-05-21T15:16:29.124Z,20.70
2017-05-21T15:18:56.772Z,20.70
2017-05-21T15:21:24.418Z,20.80
2017-05-21T15:23:53.182Z,21.00
2017-05-21T15:26:20.816Z,20.90
2017-05-21T15:28:49.203Z,21.10
2017-05-21T15:31:16.853Z,21.00
2017-05-21T15:33:45.260Z,21.00
2017-05-21T15:36:13.264Z,21.00
2017-05-21T15:38:40.948Z,21.10
2017-05-21T15:41:08.595Z,21.10
2017-05-21T15:43:37.058Z,21.10
2017-05-21T15:46:04.705Z,21.00
2017-05-21T15:48:32.675Z,21.10
2017-05-21T15:51:00.339Z,21.00
2017-05-21T15:53:28.753Z,20.90
2017-05-21T15:55:56.539Z,20.80
2017-05-21T15:58:24.222Z,20.80
2017-05-21T16:00:52.192Z,20.70
2017-05-21T16:03:20.595Z,20.60
2017-05-21T16:05:48.264Z,20.60
2017-05-21T16:08:15.963Z,20.50
2017-05-21T16:10:43.592Z,20.60
2017-05-21T16:13:12.294Z,20.70
2017-05-21T16:15:39.932Z,20.70
2017-05-21T16:18:08.361Z,20.80
2017-05-21T16:20:36.014Z,20.70
2017-05-21T16:23:04.447Z,20.80
2017-05-21T16:25:32.386Z,20.70
2017-05-21T16:28:00.800Z,20.80
2017-05-21T16:30:28.414Z,20.80
2017-05-21T16:32:56.852Z,20.90
2017-05-21T16:35:24.494Z,20.80
2017-05-21T16:37:52.523Z,20.90
2017-05-21T16:40:21.660Z,20.80
2017-05-21T16:42:49.292Z,20.70
2017-05-21T16:45:17.001Z,20.70
2017-05-21T16:47:45.478Z,20.60
2017-05-21T16:50:13.506Z,20.50
2017-05-21T16:52:41.921Z,20.50
2017-05-21T16:55:10.352Z,20.40
2017-05-21T16:57:38.800Z,20.30
2017-05-21T17:00:06.440Z,20.30
2017-05-21T17:02:35.153Z,20.20
2017-05-21T17:05:02.804Z,20.20
2017-05-21T17:07:30.469Z,20.10
2017-05-21T17:09:58.136Z,20.00
2017-05-21T17:12:25.788Z,20.00
2017-05-21T17:14:53.828Z,19.90
2017-05-21T17:17:21.481Z,19.80
2017-05-21T17:19:49.132Z,19.80
2017-05-21T17:22:16.835Z,19.70
2017-05-21T17:24:44.551Z,19.70
2017-05-21T17:27:12.505Z,19.70
2017-05-21T17:29:40.164Z,19.60
2017-05-21T17:32:07.826Z,19.60
2017-05-21T17:34:35.541Z,19.50
2017-05-21T17:37:03.200Z,19.50
2017-05-21T17:39:31.160Z,19.40
2017-05-21T17:41:58.808Z,19.30
2017-05-21T17:44:26.469Z,19.40
2017-05-21T17:46:54.146Z,19.30
2017-05-21T17:49:21.805Z,19.30
2017-05-21T17:51:50.662Z,19.20
2017-05-21T17:54:18.412Z,19.10
2017-05-21T17:56:46.062Z,19.10
2017-05-21T17:59:13.744Z,19.10
2017-05-21T18:01:41.438Z,19.10
2017-05-21T18:04:09.471Z,19.00
2017-05-21T18:06:37.177Z,18.90
2017-05-21T18:09:04.837Z,18.80
2017-05-21T18:11:32.598Z,18.80
2017-05-21T18:14:00.260Z,18.70
2017-05-21T18:16:28.334Z,18.60
2017-05-21T18:18:55.996Z,18.40
2017-05-21T18:21:23.653Z,18.40
2017-05-21T18:23:51.472Z,18.30
2017-05-21T18:26:19.953Z,18.10
2017-05-21T18:28:48.073Z,18.00
2017-05-21T18:31:15.737Z,18.00
2017-05-21T18:33:43.384Z,17.90
2017-05-21T18:36:11.301Z,17.80
2017-05-21T18:38:39.774Z,17.70
2017-05-21T18:41:07.748Z,17.60
2017-05-21T18:43:35.394Z,17.60
2017-05-21T18:46:03.072Z,17.50
2017-05-21T18:48:30.753Z,17.50
2017-05-21T18:50:59.175Z,17.30
2017-05-21T18:53:28.101Z,17.20
2017-05-21T18:55:57.268Z,17.00
2017-05-21T18:58:25.633Z,17.00
2017-05-21T19:00:53.754Z,16.90
2017-05-21T19:03:23.231Z,16.80
2017-05-21T19:05:51.219Z,16.80
2017-05-21T19:08:19.640Z,16.50
2017-05-21T19:10:47.296Z,16.40
2017-05-21T19:13:14.989Z,16.40
2017-05-21T19:15:42.653Z,16.30
2017-05-21T19:18:11.376Z,16.00
2017-05-21T19:20:39.040Z,15.90
2017-05-21T19:23:06.713Z,15.90
2017-05-21T19:25:35.160Z,15.70
2017-05-21T19:28:02.822Z,15.60
2017-05-21T19:30:30.501Z,15.60
2017-05-21T19:32:58.947Z,15.50
2017-05-21T19:35:26.714Z,15.40
2017-05-21T19:37:54.686Z,15.30
2017-05-21T19:40:23.120Z,15.20
2017-05-21T19:42:50.848Z,15.10
2017-05-21T19:45:19.560Z,14.90
2017-05-21T19:47:47.287Z,14.90
2017-05-21T19:50:14.964Z,14.80
2017-05-21T19:52:43.172Z,14.80
2017-05-21T19:55:10.828Z,14.70
2017-05-21T19:57:38.493Z,14.60
2017-05-21T20:00:06.334Z,14.60
2017-05-21T20:02:33.982Z,14.50
2017-05-21T20:05:01.946Z,14.40
2017-05-21T20:07:29.607Z,14.30
2017-05-21T20:09:57.269Z,14.20
2017-05-21T20:12:24.960Z,14.20
2017-05-21T20:14:52.603Z,14.10
2017-05-21T20:17:20.600Z,14.10
2017-05-21T20:19:48.274Z,14.00
2017-05-21T20:22:15.925Z,13.90
2017-05-21T20:24:43.971Z,13.90
2017-05-21T20:27:12.380Z,13.80
2017-05-21T20:29:40.338Z,13.70
2017-05-21T20:32:07.993Z,13.70
2017-05-21T20:34:35.649Z,13.60
2017-05-21T20:37:03.312Z,13.60
2017-05-21T20:39:30.961Z,13.50
2017-05-21T20:41:59.962Z,13.40
2017-05-21T20:44:28.509Z,13.30
2017-05-21T20:46:56.166Z,13.20
2017-05-21T20:49:24.441Z,13.20
2017-05-21T20:51:52.106Z,13.20
2017-05-21T20:54:20.105Z,13.10
2017-05-21T20:56:47.757Z,13.10
2017-05-21T20:59:15.408Z,13.10
2017-05-21T21:01:43.118Z,13.10
2017-05-21T21:04:10.910Z,13.10
2017-05-21T21:06:38.965Z,13.00
2017-05-21T21:09:06.616Z,13.10
2017-05-21T21:11:34.263Z,12.90
2017-05-21T21:14:02.711Z,12.90
2017-05-21T21:16:30.368Z,12.90
2017-05-21T21:18:59.122Z,12.80
2017-05-21T21:21:26.765Z,12.80
2017-05-21T21:24:00.220Z,12.90
2017-05-21T21:26:28.186Z,12.90
2017-05-21T21:29:02.209Z,12.80
2017-05-21T21:31:29.861Z,12.70
2017-05-21T21:33:57.519Z,12.80
2017-05-21T21:36:25.261Z,12.80
2017-05-21T21:38:53.914Z,12.80
2017-05-21T21:41:21.877Z,12.70
2017-05-21T21:43:49.526Z,12.60
2017-05-21T21:46:17.180Z,12.60
2017-05-21T21:48:45.626Z,12.60
2017-05-21T21:51:13.287Z,12.50
2017-05-21T21:53:41.241Z,12.50
2017-05-21T21:56:11.620Z,12.50
2017-05-21T21:58:39.284Z,12.50
2017-05-21T22:01:06.964Z,12.40
2017-05-21T22:03:35.423Z,12.40
2017-05-21T22:06:03.374Z,12.30
2017-05-21T22:08:31.030Z,12.30
2017-05-21T22:10:59.437Z,12.20
2017-05-21T22:13:27.153Z,12.20
2017-05-21T22:15:54.794Z,12.20
2017-05-21T22:18:23.508Z,12.20
2017-05-21T22:20:51.918Z,12.10
2017-05-21T22:23:20.346Z,12.10
2017-05-21T22:25:48.029Z,12.00
2017-05-21T22:28:15.665Z,12.10
2017-05-21T22:30:44.422Z,12.10
2017-05-21T22:33:12.873Z,12.10
2017-05-21T22:35:40.517Z,12.00
2017-05-21T22:38:08.949Z,12.00
2017-05-21T22:40:37.378Z,12.00
2017-05-21T22:43:05.432Z,12.00
2017-05-21T22:45:34.029Z,12.00
2017-05-21T22:48:01.675Z,11.90
2017-05-21T22:50:30.119Z,12.00
2017-05-21T22:52:57.769Z,11.90
2017-05-21T22:55:26.477Z,11.90
2017-05-21T22:57:54.121Z,11.80
2017-05-21T23:00:21.771Z,11.90
2017-05-21T23:02:49.442Z,11.90
2017-05-21T23:05:17.093Z,11.90
2017-05-21T23:07:45.813Z,11.80
2017-05-21T23:10:13.457Z,11.70
2017-05-21T23:12:41.101Z,11.80
2017-05-21T23:15:09.538Z,11.80
2017-05-21T23:17:37.955Z,11.80
2017-05-21T23:20:05.930Z,11.70
2017-05-21T23:22:34.345Z,11.80
2017-05-21T23:25:02.005Z,11.70
2017-05-21T23:27:30.453Z,11.90
2017-05-21T23:29:58.117Z,11.80
2017-05-21T23:32:26.856Z,11.80
2017-05-21T23:34:54.507Z,11.80
2017-05-21T23:37:22.917Z,11.70
2017-05-21T23:39:51.367Z,11.70
2017-05-21T23:42:19.787Z,11.80
2017-05-21T23:44:47.769Z,11.70
2017-05-21T23:47:15.417Z,11.70
2017-05-21T23:49:43.078Z,11.70
2017-05-21T23:52:10.753Z,11.70
2017-05-21T23:54:38.403Z,11.70
2017-05-21T23:57:06.496Z,11.60
2017-05-21T23:59:34.148Z,11.60
